sensor_id;sensor_type;location;lat;lon;timestamp;pressure;altitude;pressure_sealevel;temperature;humidity
32735;BME280;19112;51.076;3.706;2023-04-28T00:01:32;101018.25;;;13.82;53.20
32735;BME280;19112;51.076;3.706;2023-04-28T00:03:58;100981.97;;;13.74;53.07
32735;BME280;19112;51.076;3.706;2023-04-28T00:06:25;100958.09;;;13.68;52.46
32735;BME280;19112;51.076;3.706;2023-04-28T00:08:51;100960.09;;;13.79;52.50
32735;BME280;19112;51.076;3.706;2023-04-28T00:11:17;100957.19;;;13.67;52.40
32735;BME280;19112;51.076;3.706;2023-04-28T00:13:43;101011.81;;;14.10;52.08
32735;BME280;19112;51.076;3.706;2023-04-28T00:16:08;101009.28;;;14.16;52.34
32735;BME280;19112;51.076;3.706;2023-04-28T00:18:34;101014.00;;;14.31;52.23
32735;BME280;19112;51.076;3.706;2023-04-28T00:21:00;100969.97;;;13.88;52.01
32735;BME280;19112;51.076;3.706;2023-04-28T00:23:26;100729.66;;;12.52;51.89
32735;BME280;19112;51.076;3.706;2023-04-28T00:25:54;100990.41;;;13.97;51.95
32735;BME280;19112;51.076;3.706;2023-04-28T00:28:20;101003.75;;;14.03;51.98
32735;BME280;19112;51.076;3.706;2023-04-28T00:30:46;101064.66;;;14.51;51.99
32735;BME280;19112;51.076;3.706;2023-04-28T00:33:12;101012.84;;;14.17;51.93
32735;BME280;19112;51.076;3.706;2023-04-28T00:35:39;101069.09;;;14.54;51.79
32735;BME280;19112;51.076;3.706;2023-04-28T00:38:06;101077.13;;;14.58;51.71
32735;BME280;19112;51.076;3.706;2023-04-28T00:40:37;100954.47;;;14.03;51.63
32735;BME280;19112;51.076;3.706;2023-04-28T00:43:04;101057.75;;;14.59;51.55
32735;BME280;19112;51.076;3.706;2023-04-28T00:45:30;101054.28;;;14.62;51.69
32735;BME280;19112;51.076;3.706;2023-04-28T00:47:58;101008.06;;;14.43;52.00
32735;BME280;19112;51.076;3.706;2023-04-28T00:50:25;100957.41;;;14.17;51.77
32735;BME280;19112;51.076;3.706;2023-04-28T00:52:51;100995.78;;;14.44;51.92
32735;BME280;19112;51.076;3.706;2023-04-28T00:55:18;100990.41;;;14.39;51.95
32735;BME280;19112;51.076;3.706;2023-04-28T00:57:44;101030.63;;;14.68;51.96
32735;BME280;19112;51.076;3.706;2023-04-28T01:00:11;100948.75;;;14.26;52.41
32735;BME280;19112;51.076;3.706;2023-04-28T01:02:37;100984.44;;;14.48;52.77
32735;BME280;19112;51.076;3.706;2023-04-28T01:05:04;100826.81;;;13.56;53.67
32735;BME280;19112;51.076;3.706;2023-04-28T01:07:30;100824.94;;;13.50;54.38
32735;BME280;19112;51.076;3.706;2023-04-28T01:09:56;101025.66;;;14.41;54.91
32735;BME280;19112;51.076;3.706;2023-04-28T01:12:22;100916.41;;;13.92;55.68
32735;BME280;19112;51.076;3.706;2023-04-28T01:14:48;100963.81;;;14.30;56.95
32735;BME280;19112;51.076;3.706;2023-04-28T01:17:15;100862.41;;;13.75;57.77
32735;BME280;19112;51.076;3.706;2023-04-28T01:19:42;100904.91;;;13.90;59.57
32735;BME280;19112;51.076;3.706;2023-04-28T01:22:07;100795.69;;;13.38;60.28
32735;BME280;19112;51.076;3.706;2023-04-28T01:24:38;100825.06;;;13.55;60.98
32735;BME280;19112;51.076;3.706;2023-04-28T01:27:04;100854.63;;;13.42;61.65
32735;BME280;19112;51.076;3.706;2023-04-28T01:29:30;100929.16;;;13.71;62.33
32735;BME280;19112;51.076;3.706;2023-04-28T01:31:56;100752.16;;;12.77;62.95
32735;BME280;19112;51.076;3.706;2023-04-28T01:34:22;100817.97;;;13.13;63.46
32735;BME280;19112;51.076;3.706;2023-04-28T01:36:48;100811.56;;;13.02;63.68
32735;BME280;19112;51.076;3.706;2023-04-28T01:39:14;100854.34;;;13.28;63.48
32735;BME280;19112;51.076;3.706;2023-04-28T01:41:39;100773.81;;;12.64;64.33
32735;BME280;19112;51.076;3.706;2023-04-28T01:44:05;100814.88;;;12.93;64.49
32735;BME280;19112;51.076;3.706;2023-04-28T01:46:32;100862.16;;;13.23;64.60
32735;BME280;19112;51.076;3.706;2023-04-28T01:48:59;100778.59;;;12.81;64.88
32735;BME280;19112;51.076;3.706;2023-04-28T01:51:25;100830.97;;;13.05;64.48
32735;BME280;19112;51.076;3.706;2023-04-28T01:53:51;100877.47;;;13.40;64.48
32735;BME280;19112;51.076;3.706;2023-04-28T01:56:17;100783.13;;;12.87;64.69
32735;BME280;19112;51.076;3.706;2023-04-28T01:58:43;100713.78;;;12.50;64.65
32735;BME280;19112;51.076;3.706;2023-04-28T02:01:09;100878.44;;;13.43;65.07
32735;BME280;19112;51.076;3.706;2023-04-28T02:03:35;100793.75;;;12.90;65.43
32735;BME280;19112;51.076;3.706;2023-04-28T02:06:01;100781.25;;;12.83;65.43
32735;BME280;19112;51.076;3.706;2023-04-28T02:08:27;100744.88;;;12.67;65.36
32735;BME280;19112;51.076;3.706;2023-04-28T02:10:52;100817.44;;;13.28;65.08
32735;BME280;19112;51.076;3.706;2023-04-28T02:13:18;100754.44;;;13.01;65.08
32735;BME280;19112;51.076;3.706;2023-04-28T02:15:44;100737.59;;;12.94;65.29
32735;BME280;19112;51.076;3.706;2023-04-28T02:18:10;100893.25;;;13.79;65.18
32735;BME280;19112;51.076;3.706;2023-04-28T02:20:36;100753.34;;;12.91;65.68
32735;BME280;19112;51.076;3.706;2023-04-28T02:23:02;100595.84;;;11.96;65.46
32735;BME280;19112;51.076;3.706;2023-04-28T02:25:28;100861.94;;;13.53;65.15
32735;BME280;19112;51.076;3.706;2023-04-28T02:27:54;100904.75;;;13.81;65.11
32735;BME280;19112;51.076;3.706;2023-04-28T02:30:20;100781.97;;;13.15;65.36
32735;BME280;19112;51.076;3.706;2023-04-28T02:32:47;100854.28;;;13.66;65.08
32735;BME280;19112;51.076;3.706;2023-04-28T02:35:13;100897.94;;;13.92;65.30
32735;BME280;19112;51.076;3.706;2023-04-28T02:37:39;100817.03;;;13.50;64.80
32735;BME280;19112;51.076;3.706;2023-04-28T02:40:06;100917.59;;;14.06;64.76
32735;BME280;19112;51.076;3.706;2023-04-28T02:42:32;100768.22;;;13.27;65.09
32735;BME280;19112;51.076;3.706;2023-04-28T02:44:58;100893.63;;;13.97;65.30
32735;BME280;19112;51.076;3.706;2023-04-28T02:47:24;100789.47;;;13.36;65.02
32735;BME280;19112;51.076;3.706;2023-04-28T02:49:50;100848.56;;;13.86;64.85
32735;BME280;19112;51.076;3.706;2023-04-28T02:52:15;100611.16;;;12.52;64.91
32735;BME280;19112;51.076;3.706;2023-04-28T02:54:41;100802.06;;;13.49;65.58
32735;BME280;19112;51.076;3.706;2023-04-28T02:57:07;100912.16;;;14.00;65.56
32735;BME280;19112;51.076;3.706;2023-04-28T02:59:33;100802.38;;;13.65;65.44
32735;BME280;19112;51.076;3.706;2023-04-28T03:02:00;100760.69;;;13.47;65.80
32735;BME280;19112;51.076;3.706;2023-04-28T03:04:26;100819.53;;;13.88;65.91
32735;BME280;19112;51.076;3.706;2023-04-28T03:06:52;100853.44;;;14.12;65.60
32735;BME280;19112;51.076;3.706;2023-04-28T03:09:18;100887.03;;;14.19;66.20
32735;BME280;19112;51.076;3.706;2023-04-28T03:11:44;100660.25;;;12.92;66.02
32735;BME280;19112;51.076;3.706;2023-04-28T03:14:10;100786.34;;;13.54;67.02
32735;BME280;19112;51.076;3.706;2023-04-28T03:16:36;100770.25;;;13.42;67.04
32735;BME280;19112;51.076;3.706;2023-04-28T03:19:02;100786.44;;;13.58;67.12
32735;BME280;19112;51.076;3.706;2023-04-28T03:21:28;100809.06;;;13.91;67.03
32735;BME280;19112;51.076;3.706;2023-04-28T03:23:54;100833.16;;;14.09;66.95
32735;BME280;19112;51.076;3.706;2023-04-28T03:26:20;100776.31;;;13.80;67.52
32735;BME280;19112;51.076;3.706;2023-04-28T03:28:46;100857.84;;;14.11;67.58
32735;BME280;19112;51.076;3.706;2023-04-28T03:31:12;100771.50;;;13.59;67.63
32735;BME280;19112;51.076;3.706;2023-04-28T03:33:38;100620.47;;;12.78;67.51
32735;BME280;19112;51.076;3.706;2023-04-28T03:36:04;100763.41;;;13.51;68.02
32735;BME280;19112;51.076;3.706;2023-04-28T03:38:31;100655.75;;;12.85;68.16
32735;BME280;19112;51.076;3.706;2023-04-28T03:40:57;100863.91;;;14.07;68.15
32735;BME280;19112;51.076;3.706;2023-04-28T03:43:22;100784.13;;;13.75;68.15
32735;BME280;19112;51.076;3.706;2023-04-28T03:45:48;100676.84;;;13.29;67.60
32735;BME280;19112;51.076;3.706;2023-04-28T03:48:14;100772.81;;;13.81;67.85
32735;BME280;19112;51.076;3.706;2023-04-28T03:50:40;100769.19;;;13.76;68.00
32735;BME280;19112;51.076;3.706;2023-04-28T03:53:07;100758.53;;;13.71;68.22
32735;BME280;19112;51.076;3.706;2023-04-28T03:55:32;100789.63;;;13.87;68.54
32735;BME280;19112;51.076;3.706;2023-04-28T03:57:58;100751.50;;;13.72;68.19
32735;BME280;19112;51.076;3.706;2023-04-28T04:00:24;100680.25;;;13.22;68.82
32735;BME280;19112;51.076;3.706;2023-04-28T04:02:50;100781.31;;;13.68;69.24
32735;BME280;19112;51.076;3.706;2023-04-28T04:05:16;100754.13;;;13.70;69.13
32735;BME280;19112;51.076;3.706;2023-04-28T04:07:42;100580.25;;;12.87;68.57
32735;BME280;19112;51.076;3.706;2023-04-28T04:10:08;100818.34;;;14.18;68.40
32735;BME280;19112;51.076;3.706;2023-04-28T04:12:34;100793.63;;;14.12;68.29
32735;BME280;19112;51.076;3.706;2023-04-28T04:15:00;100841.84;;;14.49;68.07
32735;BME280;19112;51.076;3.706;2023-04-28T04:17:25;100787.59;;;14.21;68.01
32735;BME280;19112;51.076;3.706;2023-04-28T04:19:51;100693.47;;;13.72;67.83
32735;BME280;19112;51.076;3.706;2023-04-28T04:22:17;100787.63;;;14.23;68.10
32735;BME280;19112;51.076;3.706;2023-04-28T04:24:43;100798.13;;;14.20;68.43
32735;BME280;19112;51.076;3.706;2023-04-28T04:27:09;100835.69;;;14.52;68.26
32735;BME280;19112;51.076;3.706;2023-04-28T04:29:35;100786.81;;;14.27;68.24
32735;BME280;19112;51.076;3.706;2023-04-28T04:32:01;100696.19;;;13.75;68.41
32735;BME280;19112;51.076;3.706;2023-04-28T04:34:27;100789.50;;;14.28;69.06
32735;BME280;19112;51.076;3.706;2023-04-28T04:36:53;100829.69;;;14.60;69.00
32735;BME280;19112;51.076;3.706;2023-04-28T04:39:19;100786.06;;;14.35;69.35
32735;BME280;19112;51.076;3.706;2023-04-28T04:41:45;100779.72;;;14.24;70.11
32735;BME280;19112;51.076;3.706;2023-04-28T04:44:11;100794.78;;;14.28;70.05
32735;BME280;19112;51.076;3.706;2023-04-28T04:46:37;100793.09;;;14.33;70.06
32735;BME280;19112;51.076;3.706;2023-04-28T04:49:03;100763.88;;;14.23;69.95
32735;BME280;19112;51.076;3.706;2023-04-28T04:51:29;100708.00;;;13.97;70.68
32735;BME280;19112;51.076;3.706;2023-04-28T04:53:55;100825.25;;;14.59;70.72
32735;BME280;19112;51.076;3.706;2023-04-28T04:56:21;100791.38;;;14.37;71.10
32735;BME280;19112;51.076;3.706;2023-04-28T04:58:47;100788.84;;;14.43;70.93
32735;BME280;19112;51.076;3.706;2023-04-28T05:01:13;100739.75;;;14.01;71.65
32735;BME280;19112;51.076;3.706;2023-04-28T05:03:39;100790.59;;;14.42;71.29
32735;BME280;19112;51.076;3.706;2023-04-28T05:06:05;100749.00;;;14.28;71.11
32735;BME280;19112;51.076;3.706;2023-04-28T05:08:31;100800.66;;;14.63;70.93
32735;BME280;19112;51.076;3.706;2023-04-28T05:10:56;100735.13;;;14.42;71.59
32735;BME280;19112;51.076;3.706;2023-04-28T05:13:22;100743.22;;;14.52;71.27
32735;BME280;19112;51.076;3.706;2023-04-28T05:15:49;100844.38;;;14.99;71.45
32735;BME280;19112;51.076;3.706;2023-04-28T05:18:15;100794.72;;;14.77;71.41
32735;BME280;19112;51.076;3.706;2023-04-28T05:20:41;100722.78;;;14.41;71.29
32735;BME280;19112;51.076;3.706;2023-04-28T05:23:07;100658.09;;;14.13;71.30
32735;BME280;19112;51.076;3.706;2023-04-28T05:25:32;100679.56;;;14.35;71.15
32735;BME280;19112;51.076;3.706;2023-04-28T05:27:58;100812.91;;;15.17;70.95
32735;BME280;19112;51.076;3.706;2023-04-28T05:30:29;100845.06;;;15.46;70.81
32735;BME280;19112;51.076;3.706;2023-04-28T05:32:55;100800.81;;;15.36;70.71
32735;BME280;19112;51.076;3.706;2023-04-28T05:35:21;100769.84;;;15.28;70.42
32735;BME280;19112;51.076;3.706;2023-04-28T05:37:46;100850.66;;;15.71;70.45
32735;BME280;19112;51.076;3.706;2023-04-28T05:40:12;100822.25;;;15.56;70.28
32735;BME280;19112;51.076;3.706;2023-04-28T05:42:38;100703.44;;;15.03;70.43
32735;BME280;19112;51.076;3.706;2023-04-28T05:45:05;100685.81;;;15.02;70.02
32735;BME280;19112;51.076;3.706;2023-04-28T05:47:31;100850.19;;;16.04;69.96
32735;BME280;19112;51.076;3.706;2023-04-28T05:49:57;100820.91;;;15.89;70.73
32735;BME280;19112;51.076;3.706;2023-04-28T05:52:23;100562.66;;;14.48;70.48
32735;BME280;19112;51.076;3.706;2023-04-28T05:54:49;100789.94;;;15.83;70.73
32735;BME280;19112;51.076;3.706;2023-04-28T05:57:15;100722.66;;;15.63;70.62
32735;BME280;19112;51.076;3.706;2023-04-28T05:59:41;100745.06;;;15.97;70.70
32735;BME280;19112;51.076;3.706;2023-04-28T06:02:07;100770.06;;;16.30;70.44
32735;BME280;19112;51.076;3.706;2023-04-28T06:04:33;100802.03;;;16.48;70.25
32735;BME280;19112;51.076;3.706;2023-04-28T06:06:59;100604.47;;;15.63;70.41
32735;BME280;19112;51.076;3.706;2023-04-28T06:09:25;100818.38;;;17.01;70.44
32735;BME280;19112;51.076;3.706;2023-04-28T06:11:50;100823.78;;;17.20;70.72
32735;BME280;19112;51.076;3.706;2023-04-28T06:14:16;100616.34;;;16.19;71.20
32735;BME280;19112;51.076;3.706;2023-04-28T06:16:42;100787.50;;;17.17;70.62
32735;BME280;19112;51.076;3.706;2023-04-28T06:19:09;100745.00;;;17.00;71.19
32735;BME280;19112;51.076;3.706;2023-04-28T06:21:34;100745.84;;;16.95;71.12
32735;BME280;19112;51.076;3.706;2023-04-28T06:24:01;100789.28;;;17.15;71.49
32735;BME280;19112;51.076;3.706;2023-04-28T06:26:27;100855.84;;;17.67;72.20
32735;BME280;19112;51.076;3.706;2023-04-28T06:28:53;100824.72;;;17.26;73.27
32735;BME280;19112;51.076;3.706;2023-04-28T06:31:19;100759.91;;;16.88;73.59
32735;BME280;19112;51.076;3.706;2023-04-28T06:33:45;100798.91;;;16.99;73.15
32735;BME280;19112;51.076;3.706;2023-04-28T06:36:11;100744.91;;;16.87;73.39
32735;BME280;19112;51.076;3.706;2023-04-28T06:38:43;100785.75;;;17.18;73.22
32735;BME280;19112;51.076;3.706;2023-04-28T06:41:10;100658.94;;;16.51;72.99
32735;BME280;19112;51.076;3.706;2023-04-28T06:43:36;100863.03;;;17.77;73.29
32735;BME280;19112;51.076;3.706;2023-04-28T06:46:03;100820.47;;;17.65;73.15
32735;BME280;19112;51.076;3.706;2023-04-28T06:48:28;100819.56;;;17.59;73.05
32735;BME280;19112;51.076;3.706;2023-04-28T06:50:54;100759.16;;;17.07;73.34
32735;BME280;19112;51.076;3.706;2023-04-28T06:53:20;100796.41;;;17.28;74.07
32735;BME280;19112;51.076;3.706;2023-04-28T06:55:46;100806.22;;;17.42;73.80
32735;BME280;19112;51.076;3.706;2023-04-28T06:58:12;100835.53;;;17.69;73.66
32735;BME280;19112;51.076;3.706;2023-04-28T07:00:38;100876.41;;;18.02;73.25
32735;BME280;19112;51.076;3.706;2023-04-28T07:03:04;100697.25;;;17.08;72.80
32735;BME280;19112;51.076;3.706;2023-04-28T07:05:30;100768.19;;;17.49;73.00
32735;BME280;19112;51.076;3.706;2023-04-28T07:07:57;100799.22;;;17.67;72.76
32735;BME280;19112;51.076;3.706;2023-04-28T07:10:23;100769.94;;;17.47;72.91
32735;BME280;19112;51.076;3.706;2023-04-28T07:12:50;100763.69;;;17.34;72.66
32735;BME280;19112;51.076;3.706;2023-04-28T07:15:17;100847.94;;;17.73;73.00
32735;BME280;19112;51.076;3.706;2023-04-28T07:17:43;100823.13;;;17.67;72.77
32735;BME280;19112;51.076;3.706;2023-04-28T07:20:09;100704.28;;;16.94;73.25
32735;BME280;19112;51.076;3.706;2023-04-28T07:22:35;100821.31;;;17.61;72.90
32735;BME280;19112;51.076;3.706;2023-04-28T07:25:01;100856.88;;;17.91;72.75
32735;BME280;19112;51.076;3.706;2023-04-28T07:27:27;100827.53;;;17.66;72.88
32735;BME280;19112;51.076;3.706;2023-04-28T07:29:52;100730.03;;;17.19;72.25
32735;BME280;19112;51.076;3.706;2023-04-28T07:32:18;100796.53;;;17.62;71.98
32735;BME280;19112;51.076;3.706;2023-04-28T07:34:44;100785.03;;;17.68;71.73
32735;BME280;19112;51.076;3.706;2023-04-28T07:37:10;100775.25;;;17.50;71.78
32735;BME280;19112;51.076;3.706;2023-04-28T07:39:36;100902.97;;;18.02;72.59
32735;BME280;19112;51.076;3.706;2023-04-28T07:42:04;100793.84;;;17.48;72.20
32735;BME280;19112;51.076;3.706;2023-04-28T07:44:30;100610.41;;;16.61;71.71
32735;BME280;19112;51.076;3.706;2023-04-28T07:46:57;100853.38;;;18.10;71.44
32735;BME280;19112;51.076;3.706;2023-04-28T07:49:23;100798.44;;;17.91;71.25
32735;BME280;19112;51.076;3.706;2023-04-28T07:51:49;100849.88;;;18.31;70.91
32735;BME280;19112;51.076;3.706;2023-04-28T07:54:18;100529.06;;;16.42;70.22
32735;BME280;19112;51.076;3.706;2023-04-28T07:56:44;100857.91;;;18.69;69.87
32735;BME280;19112;51.076;3.706;2023-04-28T07:59:09;100829.56;;;18.80;69.05
32735;BME280;19112;51.076;3.706;2023-04-28T08:01:35;100845.47;;;19.19;68.64
32735;BME280;19112;51.076;3.706;2023-04-28T08:04:01;100772.78;;;18.89;67.82
32735;BME280;19112;51.076;3.706;2023-04-28T08:06:27;100888.84;;;19.67;67.54
32735;BME280;19112;51.076;3.706;2023-04-28T08:08:54;100730.25;;;18.75;66.90
32735;BME280;19112;51.076;3.706;2023-04-28T08:11:20;100737.34;;;18.69;66.83
32735;BME280;19112;51.076;3.706;2023-04-28T08:13:47;100798.50;;;18.82;67.20
32735;BME280;19112;51.076;3.706;2023-04-28T08:16:14;100807.38;;;18.94;67.14
32735;BME280;19112;51.076;3.706;2023-04-28T08:18:40;100788.75;;;18.63;67.29
32735;BME280;19112;51.076;3.706;2023-04-28T08:21:06;100825.06;;;18.64;67.82
32735;BME280;19112;51.076;3.706;2023-04-28T08:23:32;100759.50;;;18.36;68.00
32735;BME280;19112;51.076;3.706;2023-04-28T08:25:58;100747.13;;;18.13;68.51
32735;BME280;19112;51.076;3.706;2023-04-28T08:28:24;100780.78;;;18.39;68.33
32735;BME280;19112;51.076;3.706;2023-04-28T08:30:50;100817.09;;;18.58;68.55
32735;BME280;19112;51.076;3.706;2023-04-28T08:33:15;100832.16;;;18.41;69.08
32735;BME280;19112;51.076;3.706;2023-04-28T08:35:41;100900.47;;;18.78;69.23
32735;BME280;19112;51.076;3.706;2023-04-28T08:38:07;100864.97;;;18.52;69.04
32735;BME280;19112;51.076;3.706;2023-04-28T08:40:39;100833.06;;;18.38;68.91
32735;BME280;19112;51.076;3.706;2023-04-28T08:43:07;100874.72;;;18.62;69.06
32735;BME280;19112;51.076;3.706;2023-04-28T08:45:42;100825.06;;;18.35;69.10
32735;BME280;19112;51.076;3.706;2023-04-28T08:48:21;100880.03;;;18.56;69.01
32735;BME280;19112;51.076;3.706;2023-04-28T08:50:50;100748.84;;;17.74;69.46
32735;BME280;19112;51.076;3.706;2023-04-28T08:53:25;100887.97;;;18.31;69.48
32735;BME280;19112;51.076;3.706;2023-04-28T08:55:56;100840.94;;;18.00;70.03
32735;BME280;19112;51.076;3.706;2023-04-28T08:58:25;100891.50;;;18.26;69.82
32735;BME280;19112;51.076;3.706;2023-04-28T09:00:52;100899.47;;;18.20;69.82
32735;BME280;19112;51.076;3.706;2023-04-28T09:03:19;100865.75;;;17.99;69.62
32735;BME280;19112;51.076;3.706;2023-04-28T09:05:45;100886.09;;;17.94;70.44
32735;BME280;19112;51.076;3.706;2023-04-28T09:08:13;100877.31;;;18.07;70.52
32735;BME280;19112;51.076;3.706;2023-04-28T09:10:39;100866.69;;;18.18;69.56
32735;BME280;19112;51.076;3.706;2023-04-28T09:13:05;100895.06;;;18.28;69.27
32735;BME280;19112;51.076;3.706;2023-04-28T09:15:36;100926.19;;;18.70;68.80
32735;BME280;19112;51.076;3.706;2023-04-28T09:18:06;100899.50;;;18.43;68.33
32735;BME280;19112;51.076;3.706;2023-04-28T09:20:34;100937.66;;;18.54;68.08
32735;BME280;19112;51.076;3.706;2023-04-28T09:23:21;100882.72;;;18.56;67.83
32735;BME280;19112;51.076;3.706;2023-04-28T09:26:05;100856.94;;;18.15;68.14
32735;BME280;19112;51.076;3.706;2023-04-28T09:28:34;100859.56;;;18.03;68.60
32735;BME280;19112;51.076;3.706;2023-04-28T09:31:01;100785.88;;;17.42;68.82
32735;BME280;19112;51.076;3.706;2023-04-28T09:33:27;100873.72;;;18.05;69.13
32735;BME280;19112;51.076;3.706;2023-04-28T09:35:54;100762.84;;;17.46;68.95
32735;BME280;19112;51.076;3.706;2023-04-28T09:38:21;100837.41;;;17.92;68.86
32735;BME280;19112;51.076;3.706;2023-04-28T09:40:56;100911.03;;;18.42;68.36
32735;BME280;19112;51.076;3.706;2023-04-28T09:43:32;100746.13;;;17.65;67.86
32735;BME280;19112;51.076;3.706;2023-04-28T09:46:03;100908.41;;;18.55;67.09
32735;BME280;19112;51.076;3.706;2023-04-28T09:48:37;100845.41;;;18.09;67.37
32735;BME280;19112;51.076;3.706;2023-04-28T09:51:05;100827.63;;;17.83;67.49
32735;BME280;19112;51.076;3.706;2023-04-28T09:53:33;100759.22;;;17.19;68.23
32735;BME280;19112;51.076;3.706;2023-04-28T09:56:01;100838.25;;;17.89;68.02
32735;BME280;19112;51.076;3.706;2023-04-28T09:58:28;100926.94;;;18.19;68.00
32735;BME280;19112;51.076;3.706;2023-04-28T10:00:59;100934.91;;;18.26;67.98
32735;BME280;19112;51.076;3.706;2023-04-28T10:03:27;100961.56;;;18.45;67.65
32735;BME280;19112;51.076;3.706;2023-04-28T10:05:55;100929.59;;;18.23;67.48
32735;BME280;19112;51.076;3.706;2023-04-28T10:08:24;100817.84;;;17.73;67.37
32735;BME280;19112;51.076;3.706;2023-04-28T10:10:52;100927.84;;;18.27;67.02
32735;BME280;19112;51.076;3.706;2023-04-28T10:13:20;100862.19;;;17.85;66.61
32735;BME280;19112;51.076;3.706;2023-04-28T10:15:48;100920.63;;;17.85;66.76
32735;BME280;19112;51.076;3.706;2023-04-28T10:18:14;100889.56;;;17.76;66.98
32735;BME280;19112;51.076;3.706;2023-04-28T10:20:47;100964.19;;;18.29;66.58
32735;BME280;19112;51.076;3.706;2023-04-28T10:26:14;100931.38;;;18.23;65.82
32735;BME280;19112;51.076;3.706;2023-04-28T10:28:49;100894.16;;;18.12;64.88
32735;BME280;19112;51.076;3.706;2023-04-28T10:31:20;100813.47;;;17.84;64.07
32735;BME280;19112;51.076;3.706;2023-04-28T10:33:48;100933.19;;;18.41;64.04
32735;BME280;19112;51.076;3.706;2023-04-28T10:36:51;100935.00;;;18.43;63.62
32735;BME280;19112;51.076;3.706;2023-04-28T10:39:17;100752.28;;;17.47;63.60
32735;BME280;19112;51.076;3.706;2023-04-28T10:41:47;100866.69;;;18.18;62.64
32735;BME280;19112;51.076;3.706;2023-04-28T10:47:07;100928.88;;;18.70;62.07
32735;BME280;19112;51.076;3.706;2023-04-28T10:55:34;100883.59;;;18.61;62.22
32735;BME280;19112;51.076;3.706;2023-04-28T11:00:43;100977.66;;;19.18;60.61
32735;BME280;19112;51.076;3.706;2023-04-28T11:08:48;100749.72;;;17.79;61.39
32735;BME280;19112;51.076;3.706;2023-04-28T11:11:16;100917.31;;;18.79;61.40
32735;BME280;19112;51.076;3.706;2023-04-28T11:13:44;100935.97;;;18.87;61.45
32735;BME280;19112;51.076;3.706;2023-04-28T11:16:14;100925.31;;;18.79;61.37
32735;BME280;19112;51.076;3.706;2023-04-28T11:18:59;100962.59;;;18.97;61.43
32735;BME280;19112;51.076;3.706;2023-04-28T11:21:30;100935.97;;;18.82;61.60
32735;BME280;19112;51.076;3.706;2023-04-28T11:23:57;100958.16;;;19.02;61.97
32735;BME280;19112;51.076;3.706;2023-04-28T11:26:24;100802.03;;;18.40;61.98
32735;BME280;19112;51.076;3.706;2023-04-28T11:28:53;100771.91;;;18.89;61.01
32735;BME280;19112;51.076;3.706;2023-04-28T11:31:20;100961.44;;;20.27;60.33
32735;BME280;19112;51.076;3.706;2023-04-28T11:34:20;100917.03;;;20.21;58.83
32735;BME280;19112;51.076;3.706;2023-04-28T11:36:47;100824.94;;;19.59;58.26
32735;BME280;19112;51.076;3.706;2023-04-28T11:39:13;100935.63;;;20.33;58.45
32735;BME280;19112;51.076;3.706;2023-04-28T11:41:42;100971.72;;;20.92;57.78
32735;BME280;19112;51.076;3.706;2023-04-28T11:44:12;101006.19;;;21.26;57.20
32735;BME280;19112;51.076;3.706;2023-04-28T11:46:46;100987.44;;;21.35;56.74
32735;BME280;19112;51.076;3.706;2023-04-28T11:49:15;100713.03;;;19.65;56.27
32735;BME280;19112;51.076;3.706;2023-04-28T11:51:41;100927.16;;;21.02;55.91
32735;BME280;19112;51.076;3.706;2023-04-28T11:54:09;100973.25;;;21.27;56.26
32735;BME280;19112;51.076;3.706;2023-04-28T11:56:42;100981.25;;;21.29;55.56
32735;BME280;19112;51.076;3.706;2023-04-28T11:59:13;100977.72;;;21.31;55.22
32735;BME280;19112;51.076;3.706;2023-04-28T12:01:50;100971.47;;;21.28;55.53
32735;BME280;19112;51.076;3.706;2023-04-28T12:04:33;101012.41;;;21.28;55.62
32735;BME280;19112;51.076;3.706;2023-04-28T12:07:06;101021.59;;;20.90;55.08
32735;BME280;19112;51.076;3.706;2023-04-28T12:09:41;100949.97;;;20.11;56.12
32735;BME280;19112;51.076;3.706;2023-04-28T12:12:10;100958.84;;;20.14;56.63
32735;BME280;19112;51.076;3.706;2023-04-28T12:15:13;101011.22;;;20.31;57.00
32735;BME280;19112;51.076;3.706;2023-04-28T12:17:40;100783.44;;;18.69;57.10
32735;BME280;19112;51.076;3.706;2023-04-28T12:20:09;101046.88;;;19.93;57.40
32735;BME280;19112;51.076;3.706;2023-04-28T12:22:47;100974.97;;;19.64;58.05
32735;BME280;19112;51.076;3.706;2023-04-28T12:25:16;100929.72;;;19.46;58.11
32735;BME280;19112;51.076;3.706;2023-04-28T12:27:59;101038.84;;;20.04;57.68
32735;BME280;19112;51.076;3.706;2023-04-28T12:30:28;100879.16;;;19.29;57.36
32735;BME280;19112;51.076;3.706;2023-04-28T12:32:55;101016.59;;;20.08;57.08
32735;BME280;19112;51.076;3.706;2023-04-28T12:35:23;100930.50;;;19.91;57.10
32735;BME280;19112;51.076;3.706;2023-04-28T12:37:51;100995.19;;;20.32;56.14
32735;BME280;19112;51.076;3.706;2023-04-28T12:40:17;100964.97;;;20.35;55.88
32735;BME280;19112;51.076;3.706;2023-04-28T12:42:44;101010.06;;;20.85;55.13
32735;BME280;19112;51.076;3.706;2023-04-28T12:45:10;100949.03;;;20.21;55.37
32735;BME280;19112;51.076;3.706;2023-04-28T12:47:36;100859.59;;;19.60;55.55
32735;BME280;19112;51.076;3.706;2023-04-28T12:50:05;100983.69;;;20.18;56.08
32735;BME280;19112;51.076;3.706;2023-04-28T12:52:31;100976.66;;;20.00;56.29
32735;BME280;19112;51.076;3.706;2023-04-28T12:54:59;101004.06;;;20.37;56.40
32735;BME280;19112;51.076;3.706;2023-04-28T12:57:25;100991.78;;;19.94;56.95
32735;BME280;19112;51.076;3.706;2023-04-28T12:59:51;101071.53;;;20.61;56.71
32735;BME280;19112;51.076;3.706;2023-04-28T13:02:17;100994.28;;;20.47;56.29
32735;BME280;19112;51.076;3.706;2023-04-28T13:04:44;101029.69;;;20.75;56.07
32735;BME280;19112;51.076;3.706;2023-04-28T13:07:15;100927.69;;;20.18;55.68
32735;BME280;19112;51.076;3.706;2023-04-28T13:09:41;101032.19;;;20.98;55.32
32735;BME280;19112;51.076;3.706;2023-04-28T13:12:09;101049.00;;;21.17;54.97